Time;durP1;ratioP1;P1;durP2;ratioP2;P2;SDS_P1;SDS_P2;PMS_P1;PMS_P2;Temp;Humidity;BMP_temperature;BMP_pressure;BME280_temperature;BME280_humidity;BME280_pressure;Samples;Min_cycle;Max_cycle;Signal;HPM_P1;HPM_P2
2023/01/30 00:01:34;;;;;;;2.35;1.92;;;19.40;64.30;;;;;;4995409;28;20535;-75
2023/01/30 00:04:01;;;;;;;4.40;1.60;;;19.40;64.30;;;;;;4991442;28;20565;-77
2023/01/30 00:06:28;;;;;;;2.30;1.25;;;19.40;64.30;;;;;;4995568;28;20239;-76
2023/01/30 00:08:55;;;;;;;1.63;1.52;;;19.40;64.30;;;;;;4993460;28;20201;-76
2023/01/30 00:11:22;;;;;;;1.75;1.23;;;19.40;64.30;;;;;;4988428;28;20207;-78
2023/01/30 00:13:50;;;;;;;1.50;1.40;;;19.30;64.20;;;;;;4988677;28;20573;-79
2023/01/30 00:16:17;;;;;;;2.55;2.35;;;19.40;64.30;;;;;;4992026;28;20661;-77
2023/01/30 00:18:46;;;;;;;3.03;1.80;;;19.30;64.20;;;;;;4989672;28;20217;-78
2023/01/30 00:21:14;;;;;;;1.30;1.20;;;19.30;64.20;;;;;;4991554;28;20209;-77
2023/01/30 00:23:41;;;;;;;1.60;1.50;;;19.30;64.20;;;;;;4993099;28;20201;-78
2023/01/30 00:26:09;;;;;;;1.63;1.52;;;19.30;64.20;;;;;;4990718;28;20221;-79
2023/01/30 00:28:36;;;;;;;1.50;1.20;;;19.30;64.20;;;;;;4990948;28;20622;-78
2023/01/30 00:31:03;;;;;;;1.70;1.15;;;19.30;64.20;;;;;;4991374;28;20205;-77
2023/01/30 00:33:30;;;;;;;1.75;1.65;;;19.20;64.00;;;;;;4992862;28;20223;-77
2023/01/30 00:35:58;;;;;;;1.75;1.65;;;19.20;64.10;;;;;;4992223;28;20204;-78
2023/01/30 00:38:25;;;;;;;1.30;1.20;;;19.20;64.10;;;;;;4992358;28;20205;-77
2023/01/30 00:40:52;;;;;;;1.70;1.27;;;19.20;64.00;;;;;;4989299;28;20212;-79
2023/01/30 00:48:54;;;;;;;2.85;1.65;;;19.10;64.00;;;;;;4991623;28;20208;-77
2023/01/30 00:51:22;;;;;;;1.45;1.35;;;19.10;63.90;;;;;;4991266;28;20225;-78
2023/01/30 00:53:49;;;;;;;1.50;1.40;;;19.10;64.00;;;;;;4989642;28;20204;-77
2023/01/30 00:56:16;;;;;;;1.90;1.70;;;19.10;63.90;;;;;;4992015;28;20213;-78
2023/01/30 00:58:43;;;;;;;2.03;1.60;;;19.10;63.90;;;;;;4990283;28;20197;-78
2023/01/30 01:01:09;;;;;;;1.50;1.40;;;19.10;63.90;;;;;;4991740;28;20300;-78
2023/01/30 01:03:36;;;;;;;1.58;1.48;;;19.10;63.90;;;;;;4988617;28;20205;-77
2023/01/30 01:06:03;;;;;;;1.52;1.42;;;19.10;64.00;;;;;;4990457;28;20194;-76
2023/01/30 01:08:31;;;;;;;1.35;1.25;;;19.00;63.80;;;;;;4987752;28;20692;-78
2023/01/30 01:10:58;;;;;;;1.70;1.30;;;19.00;63.80;;;;;;4991158;28;21364;-78
2023/01/30 01:13:25;;;;;;;1.40;1.30;;;19.00;63.90;;;;;;4992178;28;20209;-77
2023/01/30 01:15:51;;;;;;;1.55;1.35;;;19.00;63.80;;;;;;4994274;28;20205;-78
2023/01/30 01:18:18;;;;;;;3.75;1.10;;;19.00;63.80;;;;;;4988538;28;20212;-77
2023/01/30 01:20:45;;;;;;;1.40;1.30;;;19.00;63.90;;;;;;4990957;28;20865;-78
2023/01/30 01:23:12;;;;;;;1.65;1.25;;;18.90;63.70;;;;;;4992156;28;20203;-77
2023/01/30 01:25:40;;;;;;;1.65;1.40;;;18.90;63.70;;;;;;4991752;28;20684;-77
2023/01/30 01:28:07;;;;;;;1.63;1.40;;;18.90;63.70;;;;;;4988021;28;20221;-77
2023/01/30 01:30:33;;;;;;;1.45;1.30;;;18.90;63.80;;;;;;4989764;28;20202;-76
2023/01/30 01:33:00;;;;;;;1.50;1.40;;;18.90;63.80;;;;;;4989926;28;20660;-75
2023/01/30 01:35:27;;;;;;;2.03;1.70;;;18.90;63.70;;;;;;4989048;28;20216;-77
2023/01/30 01:37:54;;;;;;;1.55;1.30;;;18.90;63.80;;;;;;4989032;28;20661;-76
2023/01/30 01:43:16;;;;;;;1.80;1.50;;;18.80;63.60;;;;;;4990875;28;20349;-78
2023/01/30 01:45:44;;;;;;;1.30;1.20;;;18.80;63.60;;;;;;4991871;28;20205;-77
2023/01/30 01:48:18;;;;;;;1.42;1.33;;;18.80;63.60;;;;;;4990320;28;20228;-77
2023/01/30 01:50:49;;;;;;;1.92;1.80;;;18.80;63.60;;;;;;4988407;28;20205;-76
2023/01/30 01:53:19;;;;;;;1.42;1.33;;;18.80;63.60;;;;;;4990177;28;20743;-78
2023/01/30 01:55:49;;;;;;;3.97;1.58;;;18.80;63.60;;;;;;4989570;28;20694;-78
2023/01/30 01:58:22;;;;;;;1.73;1.40;;;18.80;63.60;;;;;;4991222;28;20211;-78
2023/01/30 02:00:50;;;;;;;1.77;1.67;;;18.80;63.60;;;;;;4988512;28;20887;-77
2023/01/30 02:03:21;;;;;;;1.60;1.50;;;18.80;64.50;;;;;;4993421;28;20207;-77
2023/01/30 02:05:51;;;;;;;1.40;1.30;;;18.70;63.60;;;;;;4992486;28;21280;-76
2023/01/30 02:08:22;;;;;;;1.30;1.20;;;18.70;63.60;;;;;;4987852;28;20217;-78
2023/01/30 02:10:53;;;;;;;1.90;1.52;;;18.70;63.60;;;;;;4989203;28;20644;-76
2023/01/30 02:13:21;;;;;;;1.55;1.40;;;18.70;63.60;;;;;;4989548;28;20208;-76
2023/01/30 02:15:48;;;;;;;1.75;1.50;;;18.70;63.60;;;;;;4988720;28;20205;-77
2023/01/30 02:18:16;;;;;;;1.45;1.35;;;18.70;63.60;;;;;;4991781;28;20203;-77
2023/01/30 02:21:01;;;;;;;1.60;1.50;;;18.70;63.60;;;;;;4989356;28;20211;-78
2023/01/30 02:24:05;;;;;;;2.00;1.80;;;18.60;63.50;;;;;;4990403;28;20212;-76
2023/01/30 02:27:02;;;;;;;2.17;1.55;;;18.60;63.50;;;;;;4989432;28;20480;-78
2023/01/30 02:30:12;;;;;;;1.58;1.13;;;18.60;63.50;;;;;;4989227;28;20217;-77
2023/01/30 02:32:46;;;;;;;2.28;1.70;;;18.60;64.30;;;;;;4990168;28;20198;-77
2023/01/30 02:35:24;;;;;;;1.63;1.52;;;18.60;63.60;;;;;;4992786;28;20212;-78
2023/01/30 02:38:00;;;;;;;1.52;1.42;;;18.60;63.50;;;;;;4985991;28;20218;-78
2023/01/30 02:40:39;;;;;;;1.42;1.33;;;18.50;63.40;;;;;;4989368;28;20714;-77
2023/01/30 02:43:15;;;;;;;1.75;1.65;;;18.50;63.50;;;;;;4990716;28;20197;-76
2023/01/30 02:45:45;;;;;;;1.60;1.50;;;18.60;63.60;;;;;;4990357;28;20196;-77
2023/01/30 02:48:16;;;;;;;1.58;1.48;;;18.60;63.50;;;;;;4990411;28;20224;-77
2023/01/30 02:50:45;;;;;;;2.38;1.70;;;18.50;63.50;;;;;;4989584;28;20684;-78
2023/01/30 02:53:13;;;;;;;1.80;1.52;;;18.50;63.50;;;;;;4989155;28;20225;-77
2023/01/30 02:55:41;;;;;;;1.75;1.60;;;18.50;63.50;;;;;;4989530;28;20216;-79
2023/01/30 02:58:08;;;;;;;1.85;1.75;;;18.50;63.50;;;;;;4991197;28;22016;-76
2023/01/30 03:00:58;;;;;;;1.60;1.50;;;18.50;63.50;;;;;;4990638;28;20341;-77
2023/01/30 03:03:42;;;;;;;1.67;1.58;;;18.50;63.50;;;;;;4990976;28;20432;-78
2023/01/30 03:06:37;;;;;;;1.70;1.60;;;18.50;63.50;;;;;;4988782;28;20195;-77
2023/01/30 03:09:11;;;;;;;1.70;1.60;;;18.40;63.30;;;;;;4990972;28;20194;-77
2023/01/30 03:11:44;;;;;;;1.67;1.25;;;18.40;63.40;;;;;;4989992;28;20197;-79
2023/01/30 03:14:19;;;;;;;2.25;1.70;;;18.40;63.40;;;;;;4986116;28;20675;-76
2023/01/30 03:16:47;;;;;;;1.70;1.60;;;18.40;63.40;;;;;;4989177;28;20278;-77
2023/01/30 03:19:18;;;;;;;1.50;1.40;;;18.40;63.40;;;;;;4991558;28;20220;-78
2023/01/30 03:21:45;;;;;;;1.60;1.50;;;18.40;63.40;;;;;;4992065;28;20214;-77
2023/01/30 03:24:13;;;;;;;1.60;1.50;;;18.40;63.40;;;;;;4991382;28;20682;-78
2023/01/30 03:26:45;;;;;;;1.42;1.33;;;18.30;63.30;;;;;;4995590;28;20193;-77
2023/01/30 03:29:12;;;;;;;1.25;1.15;;;18.40;63.40;;;;;;4993229;28;20213;-76
2023/01/30 03:31:38;;;;;;;1.75;1.50;;;18.30;63.30;;;;;;4994935;28;20209;-77
2023/01/30 03:34:05;;;;;;;1.42;1.20;;;18.30;63.30;;;;;;4993801;28;20203;-78
2023/01/30 03:36:33;;;;;;;1.65;1.55;;;18.30;63.30;;;;;;4993925;28;20655;-76
2023/01/30 03:39:00;;;;;;;1.60;1.50;;;18.30;63.30;;;;;;4995454;28;20207;-77
2023/01/30 03:41:27;;;;;;;1.55;1.27;;;18.30;63.30;;;;;;4995158;28;20208;-77
2023/01/30 03:43:53;;;;;;;1.67;1.58;;;18.30;63.30;;;;;;4994375;28;20545;-77
2023/01/30 03:46:20;;;;;;;1.80;1.67;;;18.30;63.30;;;;;;4995261;28;20208;-77
2023/01/30 03:48:47;;;;;;;1.70;1.60;;;18.30;63.40;;;;;;4993590;28;20227;-77
2023/01/30 03:51:13;;;;;;;1.33;1.20;;;18.20;63.30;;;;;;4994265;28;20207;-79
2023/01/30 03:53:45;;;;;;;1.63;1.52;;;18.20;63.30;;;;;;4992341;28;20216;-79
2023/01/30 03:56:11;;;;;;;1.80;1.70;;;18.20;63.30;;;;;;4996211;28;20200;-79
2023/01/30 03:58:38;;;;;;;1.85;1.50;;;18.20;63.30;;;;;;4992506;28;20209;-79
2023/01/30 04:01:05;;;;;;;1.50;1.40;;;18.20;63.30;;;;;;4995854;28;20213;-77
2023/01/30 04:03:33;;;;;;;1.52;1.42;;;18.20;63.30;;;;;;4993125;28;20198;-76
2023/01/30 04:06:00;;;;;;;1.60;1.50;;;18.20;63.30;;;;;;4993879;28;20207;-77
2023/01/30 04:08:27;;;;;;;2.05;1.35;;;18.20;63.30;;;;;;4992686;28;20224;-78
2023/01/30 04:10:55;;;;;;;1.50;1.40;;;18.20;63.30;;;;;;4994796;28;20205;-78
2023/01/30 04:13:21;;;;;;;1.65;1.40;;;18.20;63.30;;;;;;4994454;28;20211;-77
2023/01/30 04:15:48;;;;;;;1.92;1.73;;;18.20;63.70;;;;;;4994949;28;20227;-76
2023/01/30 04:18:15;;;;;;;1.60;1.50;;;18.10;63.20;;;;;;4994252;28;20472;-77
2023/01/30 04:20:42;;;;;;;1.85;1.75;;;18.10;63.30;;;;;;4994336;28;20214;-77
2023/01/30 04:23:08;;;;;;;1.77;1.40;;;18.10;63.20;;;;;;4995269;28;20208;-77
2023/01/30 04:25:35;;;;;;;1.52;1.42;;;18.10;63.30;;;;;;4995755;28;20212;-76
2023/01/30 04:28:03;;;;;;;1.65;1.23;;;18.10;63.30;;;;;;4991988;28;20248;-77
2023/01/30 04:30:30;;;;;;;1.55;1.45;;;18.10;63.30;;;;;;4992893;28;20204;-77
2023/01/30 04:32:57;;;;;;;1.42;1.33;;;18.00;63.20;;;;;;4993638;28;20659;-77
2023/01/30 04:35:23;;;;;;;1.50;1.40;;;18.00;63.20;;;;;;4994650;28;20231;-77
2023/01/30 04:37:50;;;;;;;1.45;1.20;;;18.00;63.20;;;;;;4993831;28;20205;-78
2023/01/30 04:40:17;;;;;;;1.63;1.38;;;18.00;63.20;;;;;;4994842;28;20548;-76
2023/01/30 04:42:44;;;;;;;1.77;1.65;;;18.00;63.20;;;;;;4992353;28;20543;-77
2023/01/30 04:45:12;;;;;;;1.52;1.42;;;18.00;63.20;;;;;;4993344;28;20219;-74
2023/01/30 04:47:39;;;;;;;1.75;1.55;;;18.00;63.20;;;;;;4992864;28;20224;-79
2023/01/30 04:50:06;;;;;;;1.67;1.50;;;18.00;63.30;;;;;;4991601;28;20206;-75
2023/01/30 04:52:33;;;;;;;2.30;1.40;;;18.00;63.30;;;;;;4993089;28;20603;-78
2023/01/30 04:55:00;;;;;;;2.22;1.92;;;18.00;63.30;;;;;;4993457;28;20220;-77
2023/01/30 04:57:27;;;;;;;1.35;1.25;;;18.00;63.40;;;;;;4993612;28;20224;-78
2023/01/30 04:59:54;;;;;;;2.70;1.80;;;18.00;63.30;;;;;;4991944;28;20201;-75
2023/01/30 05:02:22;;;;;;;1.23;1.13;;;18.00;63.30;;;;;;4993752;28;20223;-76
2023/01/30 05:04:50;;;;;;;1.60;1.50;;;18.00;63.30;;;;;;4994259;28;20200;-75
2023/01/30 05:07:16;;;;;;;1.73;1.55;;;17.90;63.20;;;;;;4992769;28;20231;-76
2023/01/30 05:09:43;;;;;;;1.90;1.60;;;17.90;63.20;;;;;;4993870;28;20208;-77
2023/01/30 05:12:10;;;;;;;1.70;1.60;;;17.90;63.20;;;;;;4989666;28;20204;-77
2023/01/30 05:14:40;;;;;;;2.08;1.70;;;17.90;63.20;;;;;;4991822;28;20208;-78
2023/01/30 05:17:07;;;;;;;2.33;2.10;;;17.90;63.20;;;;;;4991696;28;20204;-78
2023/01/30 05:19:35;;;;;;;1.60;1.50;;;17.90;63.20;;;;;;4993159;28;20211;-79
2023/01/30 05:22:01;;;;;;;1.60;1.50;;;17.90;63.20;;;;;;4992155;28;20650;-79
2023/01/30 05:24:28;;;;;;;1.45;1.35;;;17.80;63.10;;;;;;4995081;28;20197;-78
2023/01/30 05:26:55;;;;;;;1.38;1.27;;;17.80;63.10;;;;;;4993530;28;20204;-77
2023/01/30 05:29:22;;;;;;;1.92;1.70;;;17.80;63.10;;;;;;4990498;28;20231;-78
2023/01/30 05:31:48;;;;;;;1.75;1.58;;;17.80;63.10;;;;;;4992273;28;20965;-77
2023/01/30 05:34:15;;;;;;;1.63;1.52;;;17.80;63.10;;;;;;4993633;28;20208;-77
2023/01/30 05:36:43;;;;;;;1.92;1.83;;;17.80;63.20;;;;;;4991009;28;20584;-79
2023/01/30 05:39:10;;;;;;;1.52;1.42;;;17.80;63.20;;;;;;4993008;28;20682;-77
2023/01/30 05:41:37;;;;;;;1.50;1.40;;;17.80;63.20;;;;;;4990046;28;20202;-78
2023/01/30 05:44:04;;;;;;;1.50;1.35;;;17.80;63.20;;;;;;4992427;28;20681;-77
2023/01/30 05:46:31;;;;;;;1.98;1.42;;;17.80;63.20;;;;;;4989731;28;20292;-78
2023/01/30 05:48:57;;;;;;;1.70;1.60;;;17.80;63.20;;;;;;4992068;28;20222;-76
2023/01/30 05:51:26;;;;;;;1.67;1.58;;;17.70;63.10;;;;;;4992028;28;20221;-77
2023/01/30 05:53:54;;;;;;;1.70;1.40;;;17.70;63.10;;;;;;4990723;28;20199;-76
2023/01/30 05:56:21;;;;;;;1.45;1.35;;;17.70;63.10;;;;;;4991896;28;20200;-77
2023/01/30 05:58:51;;;;;;;1.85;1.75;;;17.70;63.10;;;;;;4989848;28;20196;-79
2023/01/30 06:01:19;;;;;;;1.50;1.40;;;17.70;63.10;;;;;;4989765;28;20221;-77
2023/01/30 06:03:45;;;;;;;1.40;1.30;;;17.70;63.10;;;;;;4991143;28;20218;-78
2023/01/30 06:06:13;;;;;;;1.80;1.70;;;17.70;63.10;;;;;;4990018;28;20197;-76
2023/01/30 06:08:40;;;;;;;1.98;1.25;;;17.70;63.10;;;;;;4991324;28;20219;-77
2023/01/30 06:11:10;;;;;;;1.65;1.55;;;17.70;63.10;;;;;;4992006;28;20200;-76
2023/01/30 06:13:38;;;;;;;2.00;1.80;;;17.60;63.10;;;;;;4991486;28;20213;-76
2023/01/30 06:16:06;;;;;;;1.73;1.55;;;17.60;63.10;;;;;;4990406;28;20200;-78
2023/01/30 06:18:32;;;;;;;1.52;1.42;;;17.60;63.00;;;;;;4992091;28;20226;-75
2023/01/30 06:21:00;;;;;;;1.75;1.65;;;17.60;63.10;;;;;;4990605;28;20209;-77
2023/01/30 06:23:28;;;;;;;2.45;2.25;;;17.60;63.00;;;;;;4992434;28;20732;-78
2023/01/30 06:25:55;;;;;;;1.95;1.85;;;17.60;63.10;;;;;;4989804;28;20211;-76
2023/01/30 06:28:24;;;;;;;1.63;1.52;;;17.60;63.10;;;;;;4991648;28;20710;-77
2023/01/30 06:30:52;;;;;;;1.63;1.52;;;17.60;63.10;;;;;;4989695;28;20204;-76
2023/01/30 06:33:19;;;;;;;1.73;1.60;;;17.60;63.10;;;;;;4991819;28;20219;-78
2023/01/30 06:35:49;;;;;;;1.27;1.17;;;17.60;63.10;;;;;;4990414;28;20809;-76
2023/01/30 06:38:17;;;;;;;1.60;1.50;;;17.60;63.10;;;;;;4990703;28;20221;-77
2023/01/30 06:40:45;;;;;;;1.30;1.20;;;17.60;63.20;;;;;;4992222;28;20211;-77
2023/01/30 06:43:12;;;;;;;1.52;1.42;;;17.60;63.00;;;;;;4991930;28;21958;-78
2023/01/30 06:45:41;;;;;;;2.75;1.65;;;17.70;63.10;;;;;;4992471;28;20286;-78
2023/01/30 06:48:08;;;;;;;1.90;1.80;;;17.70;63.00;;;;;;4991012;28;20227;-77
2023/01/30 06:50:35;;;;;;;1.45;1.35;;;17.70;63.00;;;;;;4993953;28;20204;-77
2023/01/30 06:53:05;;;;;;;1.73;1.63;;;17.70;62.90;;;;;;4990925;28;20231;-77
2023/01/30 06:55:34;;;;;;;1.80;1.50;;;17.80;62.80;;;;;;4994131;28;20213;-76
2023/01/30 06:58:02;;;;;;;2.28;1.35;;;17.80;62.60;;;;;;4990630;28;20529;-78
2023/01/30 07:00:29;;;;;;;1.85;1.65;;;17.90;62.80;;;;;;4994172;28;20208;-78
2023/01/30 07:02:58;;;;;;;1.55;1.45;;;17.90;62.80;;;;;;4995611;28;20205;-77
2023/01/30 07:05:25;;;;;;;1.50;1.20;;;18.00;62.70;;;;;;4997873;28;20247;-77
2023/01/30 07:07:51;;;;;;;3.58;1.60;;;18.00;62.70;;;;;;4989475;28;20207;-77
2023/01/30 07:10:18;;;;;;;1.63;1.33;;;18.00;62.70;;;;;;4998309;28;20197;-77
2023/01/30 07:12:45;;;;;;;1.80;1.42;;;18.00;62.70;;;;;;4995441;28;20208;-78
2023/01/30 07:15:12;;;;;;;1.50;1.40;;;18.00;62.70;;;;;;4995574;28;20216;-77
2023/01/30 07:17:40;;;;;;;1.50;1.33;;;18.10;62.90;;;;;;4995077;28;20204;-77
2023/01/30 07:20:10;;;;;;;1.63;1.52;;;18.10;62.80;;;;;;4997520;28;20195;-76
2023/01/30 07:22:37;;;;;;;1.25;1.15;;;18.10;62.80;;;;;;4995857;28;20283;-78
2023/01/30 07:25:04;;;;;;;1.40;1.23;;;18.10;62.80;;;;;;4995629;28;20220;-76
2023/01/30 07:27:31;;;;;;;1.65;1.30;;;18.20;62.90;;;;;;4996032;28;20208;-77
2023/01/30 07:29:58;;;;;;;1.25;1.15;;;18.20;63.00;;;;;;4991702;28;20213;-76
2023/01/30 07:32:25;;;;;;;1.65;1.23;;;18.20;63.00;;;;;;4995085;28;20212;-77
2023/01/30 07:34:52;;;;;;;1.40;1.30;;;18.20;62.90;;;;;;4992390;28;20190;-79
2023/01/30 07:37:20;;;;;;;1.30;1.15;;;18.20;62.90;;;;;;4993886;28;20604;-76
2023/01/30 07:39:46;;;;;;;1.88;1.60;;;18.30;63.10;;;;;;4994628;28;20215;-78
2023/01/30 07:42:13;;;;;;;1.40;1.30;;;18.30;63.10;;;;;;4994437;28;20225;-77
2023/01/30 07:44:40;;;;;;;1.45;1.35;;;18.30;63.10;;;;;;4996286;28;20212;-79
2023/01/30 07:47:06;;;;;;;1.83;1.60;;;18.30;63.10;;;;;;4990919;28;20664;-77
2023/01/30 07:49:33;;;;;;;1.60;1.50;;;18.30;63.00;;;;;;4995383;28;20213;-77
2023/01/30 07:52:00;;;;;;;1.42;1.33;;;18.30;63.10;;;;;;4993992;28;20712;-77
2023/01/30 07:54:28;;;;;;;1.98;1.65;;;18.40;63.20;;;;;;4995613;28;20212;-76
2023/01/30 07:56:55;;;;;;;2.30;1.60;;;18.30;63.00;;;;;;4994334;28;20197;-77
2023/01/30 07:59:21;;;;;;;1.40;1.30;;;18.30;63.00;;;;;;4995404;28;20197;-76
2023/01/30 08:01:48;;;;;;;1.40;1.30;;;18.30;63.10;;;;;;4991098;28;20559;-78
2023/01/30 08:04:15;;;;;;;1.73;1.58;;;18.40;63.10;;;;;;4995559;28;20208;-77
2023/01/30 08:06:41;;;;;;;1.30;1.20;;;18.40;63.10;;;;;;4992778;28;20248;-77
2023/01/30 08:09:08;;;;;;;1.80;1.50;;;18.40;63.10;;;;;;4995430;28;20213;-77
2023/01/30 08:11:36;;;;;;;1.35;1.25;;;18.40;63.10;;;;;;4986869;28;20216;-78
2023/01/30 08:14:03;;;;;;;5.13;1.50;;;18.40;63.10;;;;;;4985035;28;20209;-77
2023/01/30 08:16:31;;;;;;;5.00;1.33;;;18.60;63.70;;;;;;4993095;28;20591;-77
2023/01/30 08:18:58;;;;;;;1.95;1.45;;;18.50;63.50;;;;;;4991268;28;20201;-77
2023/01/30 08:21:25;;;;;;;7.28;1.65;;;18.60;63.60;;;;;;4992872;28;20221;-79
2023/01/30 08:23:53;;;;;;;5.97;1.10;;;18.60;63.60;;;;;;4994675;28;20760;-85
2023/01/30 08:26:19;;;;;;;2.53;1.58;;;18.60;63.80;;;;;;4995031;28;20589;-77
2023/01/30 08:28:47;;;;;;;2.38;1.20;;;18.60;64.00;;;;;;4992873;28;20228;-77
2023/01/30 08:31:16;;;;;;;2.10;1.50;;;18.60;64.00;;;;;;4991387;28;20212;-77
2023/01/30 08:33:43;;;;;;;1.60;1.30;;;18.60;63.80;;;;;;4991151;28;20206;-78
2023/01/30 08:36:09;;;;;;;4.55;1.42;;;18.60;63.80;;;;;;4997707;28;20193;-78
2023/01/30 08:38:36;;;;;;;2.50;1.13;;;18.60;63.70;;;;;;4995947;28;20660;-77
2023/01/30 08:41:05;;;;;;;2.22;1.30;;;18.60;63.90;;;;;;4995701;28;20734;-79
2023/01/30 08:43:32;;;;;;;1.50;1.40;;;18.60;63.80;;;;;;4993727;28;20223;-78
2023/01/30 08:46:00;;;;;;;2.05;1.10;;;18.60;63.70;;;;;;4993341;28;20207;-77
2023/01/30 08:48:28;;;;;;;1.67;1.17;;;18.70;63.90;;;;;;4995535;28;20202;-79
2023/01/30 08:50:56;;;;;;;2.10;1.48;;;18.70;63.80;;;;;;4995697;28;20204;-82
2023/01/30 08:53:23;;;;;;;5.43;1.50;;;18.70;63.80;;;;;;4996961;28;20200;-85
2023/01/30 08:55:51;;;;;;;1.23;1.13;;;18.70;64.60;;;;;;4988493;28;20209;-79
2023/01/30 08:58:18;;;;;;;3.03;1.70;;;18.80;63.80;;;;;;4992120;28;20851;-80
2023/01/30 09:00:45;;;;;;;1.70;1.50;;;18.80;63.70;;;;;;4992697;28;20197;-81
2023/01/30 09:03:14;;;;;;;5.15;1.55;;;18.80;63.60;;;;;;4996414;28;20299;-80
2023/01/30 09:05:42;;;;;;;2.05;1.30;;;18.80;63.30;;;;;;4997696;28;20209;-80
2023/01/30 09:08:08;;;;;;;3.55;1.55;;;18.80;63.40;;;;;;4994494;28;20198;-80
2023/01/30 09:10:36;;;;;;;1.60;1.50;;;18.80;63.30;;;;;;4994850;28;20225;-80
2023/01/30 09:13:04;;;;;;;5.22;2.05;;;18.80;63.40;;;;;;4993567;28;20194;-80
2023/01/30 09:15:31;;;;;;;1.85;1.70;;;18.80;63.30;;;;;;4994345;28;20247;-78
2023/01/30 09:17:57;;;;;;;4.55;1.63;;;18.80;63.30;;;;;;4993341;28;20206;-80
2023/01/30 09:20:26;;;;;;;5.40;1.60;;;18.90;63.30;;;;;;4995017;28;20189;-79
2023/01/30 09:22:52;;;;;;;1.63;1.52;;;18.90;63.20;;;;;;4996243;28;20202;-80
2023/01/30 09:25:19;;;;;;;1.67;1.40;;;18.90;63.20;;;;;;4991260;28;20285;-81
2023/01/30 09:27:48;;;;;;;1.65;1.55;;;18.90;63.10;;;;;;4990937;28;20197;-80
2023/01/30 09:30:16;;;;;;;1.90;1.40;;;18.90;63.10;;;;;;4992158;28;20240;-80
2023/01/30 09:32:43;;;;;;;1.92;1.20;;;18.90;63.10;;;;;;4994596;28;20215;-79
2023/01/30 09:35:10;;;;;;;7.88;2.55;;;18.90;63.10;;;;;;4997239;28;20209;-80
2023/01/30 09:37:38;;;;;;;12.77;1.83;;;18.90;62.90;;;;;;4991954;28;20206;-79
2023/01/30 09:40:06;;;;;;;1.83;1.30;;;18.90;62.90;;;;;;4995707;28;21016;-80
2023/01/30 09:42:52;;;;;;;1.90;1.60;;;18.90;62.90;;;;;;4992164;28;20720;-79
2023/01/30 09:45:40;;;;;;;1.85;1.30;;;19.00;62.90;;;;;;4991778;28;20225;-79
2023/01/30 09:48:16;;;;;;;2.15;1.27;;;19.00;62.80;;;;;;4994090;28;20302;-79
2023/01/30 09:51:03;;;;;;;1.75;1.65;;;19.00;62.80;;;;;;4989125;28;21207;-79
2023/01/30 09:53:40;;;;;;;1.42;1.30;;;19.00;62.70;;;;;;4988680;28;20206;-80
2023/01/30 09:56:07;;;;;;;1.40;1.30;;;19.00;62.60;;;;;;4994572;28;20193;-78
2023/01/30 09:58:42;;;;;;;2.10;1.23;;;19.00;62.60;;;;;;4991851;28;20580;-80
2023/01/30 10:01:17;;;;;;;1.52;1.20;;;19.00;62.60;;;;;;4992604;28;20205;-80
2023/01/30 10:03:55;;;;;;;1.30;1.10;;;19.00;62.60;;;;;;4991603;28;20209;-80
2023/01/30 10:06:22;;;;;;;1.85;1.55;;;19.00;62.60;;;;;;4993277;28;20576;-80
2023/01/30 10:09:00;;;;;;;1.90;1.30;;;19.00;62.60;;;;;;4992311;28;20213;-80
2023/01/30 10:11:40;;;;;;;1.73;1.55;;;19.00;62.70;;;;;;4991128;28;20194;-80
2023/01/30 10:14:26;;;;;;;3.75;1.40;;;19.00;62.70;;;;;;4991698;28;20197;-80
2023/01/30 10:17:01;;;;;;;1.65;1.45;;;19.10;62.80;;;;;;4988707;28;20661;-81
2023/01/30 10:19:43;;;;;;;1.38;1.20;;;19.10;62.80;;;;;;4991479;28;20207;-80
2023/01/30 10:22:25;;;;;;;3.05;1.45;;;19.10;62.90;;;;;;4994332;28;20766;-80
2023/01/30 10:25:01;;;;;;;1.60;1.23;;;19.10;62.80;;;;;;4988744;28;20209;-80
2023/01/30 10:27:30;;;;;;;2.80;1.40;;;19.10;62.80;;;;;;4992028;28;20251;-80
2023/01/30 10:30:00;;;;;;;1.25;1.10;;;19.10;62.80;;;;;;4991242;28;20228;-80
2023/01/30 10:32:31;;;;;;;2.00;1.80;;;19.10;62.80;;;;;;4992685;28;21621;-80
2023/01/30 10:35:05;;;;;;;2.08;1.63;;;19.10;62.80;;;;;;4994598;28;20206;-80
2023/01/30 10:37:38;;;;;;;2.53;1.30;;;19.10;62.80;;;;;;4996993;28;20202;-80
2023/01/30 10:40:17;;;;;;;1.45;1.17;;;19.10;62.80;;;;;;4994034;28;20206;-80
2023/01/30 10:42:49;;;;;;;1.98;1.48;;;19.10;62.80;;;;;;4998043;28;20723;-80
2023/01/30 10:45:19;;;;;;;2.22;1.58;;;19.10;62.80;;;;;;4996987;28;20665;-80
2023/01/30 10:47:59;;;;;;;1.70;1.50;;;19.10;62.80;;;;;;4996209;28;20194;-79
2023/01/30 10:50:38;;;;;;;1.40;1.25;;;19.10;62.80;;;;;;4996159;28;20218;-85
2023/01/30 10:53:13;;;;;;;1.45;1.20;;;19.20;62.90;;;;;;4997071;28;20582;-87
2023/01/30 10:55:47;;;;;;;1.83;1.33;;;19.20;63.00;;;;;;4994066;28;20584;-87
2023/01/30 10:58:22;;;;;;;1.20;1.10;;;19.20;63.00;;;;;;4996014;28;20209;-85
2023/01/30 11:00:58;;;;;;;1.45;1.10;;;19.30;63.10;;;;;;4993911;28;20191;-84
2023/01/30 11:03:35;;;;;;;1.50;1.00;;;19.30;63.20;;;;;;4994240;28;20671;-82
2023/01/30 11:06:06;;;;;;;2.72;1.45;;;19.30;63.40;;;;;;4993706;28;20203;-84
2023/01/30 11:08:34;;;;;;;1.92;1.42;;;19.40;63.50;;;;;;4997440;28;20210;-84
2023/01/30 11:11:26;;;;;;;1.27;1.17;;;19.40;63.50;;;;;;4997462;28;21893;-85
2023/01/30 11:14:01;;;;;;;1.38;1.10;;;19.40;63.60;;;;;;4996328;28;20210;-84
2023/01/30 11:16:29;;;;;;;1.40;1.23;;;19.40;63.50;;;;;;4991037;28;20204;-84
2023/01/30 11:18:58;;;;;;;1.40;1.30;;;19.40;63.50;;;;;;4994192;28;22308;-84
2023/01/30 11:21:28;;;;;;;1.38;1.27;;;19.40;63.50;;;;;;4995498;28;20304;-86
2023/01/30 11:23:55;;;;;;;1.90;1.25;;;19.50;63.70;;;;;;4997072;28;20198;-84
2023/01/30 11:26:24;;;;;;;1.95;1.30;;;19.50;63.60;;;;;;4993421;28;20570;-86
2023/01/30 11:28:51;;;;;;;1.50;1.10;;;19.50;63.60;;;;;;4993235;28;20206;-85
2023/01/30 11:31:20;;;;;;;1.80;1.25;;;19.50;63.60;;;;;;4994473;28;20255;-87
2023/01/30 11:34:00;;;;;;;1.73;1.00;;;19.50;63.60;;;;;;4994931;28;20229;-84
2023/01/30 11:36:29;;;;;;;1.73;1.40;;;19.50;64.40;;;;;;4995504;28;20206;-83
2023/01/30 11:39:00;;;;;;;1.38;1.10;;;19.60;63.70;;;;;;4989922;28;20210;-82
2023/01/30 11:41:28;;;;;;;3.17;1.20;;;19.60;63.70;;;;;;4992891;28;20194;-82
2023/01/30 11:44:03;;;;;;;1.55;1.10;;;19.60;63.70;;;;;;4992952;28;20205;-83
2023/01/30 11:46:34;;;;;;;1.70;1.08;;;19.60;63.70;;;;;;4992505;28;20493;-80
2023/01/30 11:49:03;;;;;;;1.48;1.08;;;19.60;63.70;;;;;;4993823;28;20665;-81
2023/01/30 11:51:34;;;;;;;1.65;1.20;;;19.70;63.90;;;;;;4992488;28;20759;-81
2023/01/30 11:54:04;;;;;;;1.42;1.00;;;19.70;63.60;;;;;;4992576;28;20600;-80
2023/01/30 11:56:35;;;;;;;1.15;0.93;;;19.70;63.70;;;;;;4994657;28;20222;-81
2023/01/30 11:59:04;;;;;;;1.75;1.13;;;19.70;63.80;;;;;;4993246;28;20230;-82
2023/01/30 12:01:33;;;;;;;1.25;1.15;;;19.70;63.70;;;;;;4993193;28;20203;-82
2023/01/30 12:04:01;;;;;;;2.00;1.20;;;19.70;63.70;;;;;;4994159;28;20200;-82
2023/01/30 12:06:31;;;;;;;1.30;1.13;;;19.70;63.70;;;;;;4993405;28;20199;-81
2023/01/30 12:08:59;;;;;;;1.30;1.00;;;19.70;63.70;;;;;;4993281;28;20218;-82
2023/01/30 12:11:29;;;;;;;2.53;1.20;;;19.70;63.70;;;;;;4993757;28;20979;-80
2023/01/30 12:14:12;;;;;;;1.40;1.17;;;19.80;63.90;;;;;;4993730;28;20213;-86
2023/01/30 12:16:53;;;;;;;1.50;1.20;;;19.80;63.80;;;;;;4991694;28;20677;-82
2023/01/30 12:19:31;;;;;;;1.40;1.27;;;19.80;63.80;;;;;;4992912;28;20206;-83
2023/01/30 12:22:03;;;;;;;2.67;1.40;;;19.80;63.80;;;;;;4990791;28;20578;-83
2023/01/30 12:24:37;;;;;;;1.48;1.25;;;19.80;64.30;;;;;;4992638;28;20210;-84
2023/01/30 12:27:11;;;;;;;1.20;1.10;;;19.70;63.50;;;;;;4988148;28;20844;-84
2023/01/30 12:29:45;;;;;;;1.90;1.35;;;19.70;63.60;;;;;;4992541;28;20213;-89
2023/01/30 12:32:16;;;;;;;2.40;1.30;;;19.70;63.60;;;;;;4992306;28;20199;-88
2023/01/30 12:34:44;;;;;;;1.23;1.13;;;19.70;63.60;;;;;;4995972;28;20211;-87
2023/01/30 12:37:32;;;;;;;1.65;1.23;;;19.70;63.60;;;;;;4995487;28;20214;-88
2023/01/30 12:40:07;;;;;;;1.40;1.00;;;19.80;63.80;;;;;;4996447;28;20207;-91
2023/01/30 12:43:02;;;;;;;2.22;1.42;;;19.80;63.80;;;;;;4999950;28;20306;-90
2023/01/30 12:45:33;;;;;;;4.95;1.05;;;19.90;64.80;;;;;;4991207;28;20211;-85
2023/01/30 12:48:34;;;;;;;1.75;1.60;;;19.90;64.00;;;;;;4994048;28;20208;-90
2023/01/30 13:04:09;;;;;;;1.95;1.45;;;20.00;64.40;;;;;;1501984;26;20224;-88
2023/01/30 13:06:48;;;;;;;3.45;1.27;;;20.00;64.40;;;;;;5056571;28;20199;-91
2023/01/30 13:09:32;;;;;;;1.48;0.90;;;20.00;64.40;;;;;;5056313;28;20193;-93
2023/01/30 13:12:08;;;;;;;1.63;1.00;;;20.00;64.40;;;;;;5065735;28;20223;-86
2023/01/30 13:14:40;;;;;;;1.50;0.90;;;20.00;64.50;;;;;;5055944;28;20196;-86
2023/01/30 13:17:31;;;;;;;1.65;1.00;;;20.00;65.40;;;;;;5057381;28;20224;-88
2023/01/30 13:20:08;;;;;;;1.73;1.35;;;20.00;64.50;;;;;;5059065;28;20632;-86
2023/01/30 13:22:40;;;;;;;1.50;1.02;;;20.00;64.60;;;;;;5057104;28;20197;-82
2023/01/30 13:25:18;;;;;;;1.42;0.82;;;20.10;64.70;;;;;;5055798;28;20208;-84